createdAt,value
2018-10-05T00:00:10.335Z,93.55
2018-10-05T00:01:09.974Z,93.26
2018-10-05T00:03:10.042Z,92.59
2018-10-05T00:04:09.913Z,92.69
2018-10-05T00:05:10.001Z,92.74
2018-10-05T00:06:10.560Z,92.59
2018-10-05T00:08:10.201Z,92.55
2018-10-05T00:09:09.834Z,93.36
2018-10-05T00:10:09.828Z,92.83
2018-10-05T00:11:09.984Z,92.64
2018-10-05T00:12:10.148Z,92.93
2018-10-05T00:13:09.881Z,92.74
2018-10-05T00:14:09.870Z,92.45
2018-10-05T00:15:09.862Z,92.45
2018-10-05T00:16:09.850Z,92.93
2018-10-05T00:18:09.763Z,92.55
2018-10-05T00:19:10.074Z,92.74
2018-10-05T00:20:09.658Z,92.74
2018-10-05T00:21:09.715Z,92.45
2018-10-05T00:22:09.690Z,93.02
2018-10-05T00:23:09.678Z,92.36
2018-10-05T00:25:09.870Z,92.55
2018-10-05T00:26:09.618Z,92.64
2018-10-05T00:27:09.789Z,92.26
2018-10-05T00:28:09.525Z,92.26
2018-10-05T00:29:09.505Z,92.36
2018-10-05T00:30:09.538Z,92.45
2018-10-05T00:31:09.471Z,92.26
2018-10-05T00:32:09.852Z,92.45
2018-10-05T00:33:09.488Z,92.36
2018-10-05T00:34:09.466Z,92.45
2018-10-05T00:35:09.459Z,92.83
2018-10-05T00:36:09.377Z,92.93
2018-10-05T00:37:09.396Z,92.93
2018-10-05T00:38:09.511Z,92.93
2018-10-05T00:39:09.688Z,92.74
2018-10-05T00:40:09.323Z,92.45
2018-10-05T00:41:09.296Z,92.93
2018-10-05T00:42:09.394Z,92.45
2018-10-05T00:43:09.263Z,92.26
2018-10-05T00:44:09.318Z,92.45
2018-10-05T00:45:09.417Z,92.26
2018-10-05T00:46:09.599Z,92.45
2018-10-05T00:47:09.198Z,92.12
2018-10-05T00:48:09.230Z,92.45
2018-10-05T00:49:09.165Z,92.21
2018-10-05T00:50:09.204Z,92.26
2018-10-05T00:51:09.197Z,92.45
2018-10-05T00:52:09.214Z,92.36
2018-10-05T00:53:09.720Z,92.45
2018-10-05T00:54:09.170Z,92.93
2018-10-05T00:55:09.111Z,92.41
2018-10-05T00:56:09.048Z,92.36
2018-10-05T00:57:09.024Z,92.41
2018-10-05T00:58:09.017Z,92.31
2018-10-05T01:00:09.282Z,92.41
2018-10-05T01:01:09.011Z,92.12
2018-10-05T01:02:08.948Z,92.21
2018-10-05T01:03:08.929Z,92.41
2018-10-05T01:04:08.915Z,92.41
2018-10-05T01:05:08.885Z,92.21
2018-10-05T01:06:08.872Z,92.02
2018-10-05T01:07:08.854Z,92.31
2018-10-05T01:08:08.961Z,92.21
2018-10-05T01:09:08.829Z,92.31
2018-10-05T01:10:08.802Z,92.50
2018-10-05T01:11:08.836Z,92.21
2018-10-05T01:12:09.137Z,92.31
2018-10-05T01:13:08.751Z,91.83
2018-10-05T01:14:08.742Z,92.21
2018-10-05T01:15:08.794Z,92.21
2018-10-05T01:17:08.690Z,92.31
2018-10-05T01:18:08.966Z,92.41
2018-10-05T01:19:08.655Z,92.21
2018-10-05T01:20:08.734Z,92.21
2018-10-05T01:21:08.691Z,92.41
2018-10-05T01:22:08.649Z,92.21
2018-10-05T01:23:08.652Z,92.31
2018-10-05T01:24:08.866Z,92.21
2018-10-05T01:25:08.620Z,91.74
2018-10-05T01:26:08.678Z,91.93
2018-10-05T01:27:08.515Z,91.83
2018-10-05T01:28:08.493Z,91.26
2018-10-05T01:29:08.503Z,91.16
2018-10-05T01:30:08.774Z,91.83
2018-10-05T01:31:08.488Z,91.55
2018-10-05T01:32:08.475Z,91.74
2018-10-05T01:33:08.452Z,92.02
2018-10-05T01:34:08.444Z,91.64
2018-10-05T01:35:08.426Z,91.93
2018-10-05T01:36:08.836Z,91.64
2018-10-05T01:37:08.513Z,91.64
2018-10-05T01:38:08.540Z,91.83
2018-10-05T01:39:08.409Z,91.45
2018-10-05T01:40:08.740Z,91.64
2018-10-05T01:41:08.369Z,91.36
2018-10-05T01:42:08.599Z,91.26
2018-10-05T01:43:08.234Z,91.45
2018-10-05T01:44:08.271Z,91.26
2018-10-05T01:45:08.259Z,91.16
2018-10-05T01:46:08.181Z,91.16
2018-10-05T01:48:08.501Z,91.12
2018-10-05T01:49:08.253Z,90.93
2018-10-05T01:50:08.256Z,91.31
2018-10-05T01:51:08.100Z,91.02
2018-10-05T01:52:08.172Z,91.12
2018-10-05T01:53:08.436Z,90.55
2018-10-05T01:54:08.051Z,90.64
2018-10-05T01:55:08.413Z,90.17
2018-10-05T01:56:08.015Z,90.45
2018-10-05T01:57:08.048Z,89.78
2018-10-05T01:58:08.048Z,89.88
2018-10-05T01:59:07.961Z,89.59
2018-10-05T02:00:07.964Z,89.50
2018-10-05T02:01:07.931Z,89.50
2018-10-05T02:02:08.212Z,90.36
2018-10-05T02:03:07.963Z,90.17
2018-10-05T02:04:07.936Z,89.59
2018-10-05T02:05:07.916Z,89.40
2018-10-05T02:06:07.837Z,89.78
2018-10-05T02:07:07.893Z,88.73
2018-10-05T02:08:07.797Z,89.21
2018-10-05T02:09:08.158Z,89.12
2018-10-05T02:10:07.915Z,89.02
2018-10-05T02:11:07.756Z,89.78
2018-10-05T02:12:08.147Z,89.59
2018-10-05T02:13:07.797Z,89.78
2018-10-05T02:14:07.988Z,89.69
2018-10-05T02:15:07.831Z,89.97
2018-10-05T02:16:08.027Z,89.78
2018-10-05T02:17:07.647Z,89.88
2018-10-05T02:18:07.681Z,89.78
2018-10-05T02:19:07.676Z,89.21
2018-10-05T02:20:07.695Z,89.02
2018-10-05T02:22:07.920Z,89.40
2018-10-05T02:23:07.544Z,88.69
2018-10-05T02:25:07.555Z,88.92
2018-10-05T02:26:07.486Z,88.54
2018-10-05T02:28:07.815Z,88.69
2018-10-05T02:29:07.752Z,88.12
2018-10-05T02:30:07.532Z,88.02
2018-10-05T02:31:07.461Z,88.02
2018-10-05T02:32:07.749Z,87.83
2018-10-05T02:33:07.522Z,88.12
2018-10-05T02:34:07.660Z,87.83
2018-10-05T02:35:07.700Z,88.12
2018-10-05T02:36:07.317Z,88.31
2018-10-05T02:37:07.311Z,87.35
2018-10-05T02:38:07.275Z,87.45
2018-10-05T02:39:07.262Z,87.45
2018-10-05T02:40:07.244Z,87.35
2018-10-05T02:41:07.598Z,87.26
2018-10-05T02:42:07.355Z,87.16
2018-10-05T02:43:07.260Z,87.16
2018-10-05T02:44:07.243Z,86.88
2018-10-05T02:45:07.218Z,87.45
2018-10-05T02:46:07.395Z,87.64
2018-10-05T02:47:07.892Z,86.98
2018-10-05T02:48:07.169Z,86.78
2018-10-05T02:49:07.186Z,87.07
2018-10-05T02:50:07.083Z,86.88
2018-10-05T02:51:07.280Z,86.69
2018-10-05T02:52:07.097Z,86.78
2018-10-05T02:53:07.397Z,87.07
2018-10-05T02:55:07.001Z,86.78
2018-10-05T02:56:06.972Z,86.88
2018-10-05T02:57:06.946Z,86.78
2018-10-05T02:58:06.978Z,86.30
2018-10-05T02:59:07.299Z,86.11
2018-10-05T03:00:07.005Z,86.21
2018-10-05T03:01:06.950Z,86.49
2018-10-05T03:02:06.852Z,86.98
2018-10-05T03:03:06.834Z,86.98
2018-10-05T03:04:06.910Z,87.45
2018-10-05T03:05:07.196Z,87.07
2018-10-05T03:06:06.829Z,86.88
2018-10-05T03:07:06.843Z,86.78
2018-10-05T03:08:06.816Z,87.54
2018-10-05T03:09:06.787Z,87.26
2018-10-05T03:10:06.712Z,87.35
2018-10-05T03:11:06.995Z,87.54
2018-10-05T03:12:06.676Z,87.45
2018-10-05T03:13:06.724Z,87.74
2018-10-05T03:14:06.645Z,87.54
2018-10-05T03:15:06.630Z,87.45
2018-10-05T03:16:06.598Z,87.54
2018-10-05T03:17:06.660Z,87.45
2018-10-05T03:18:06.942Z,87.64
2018-10-05T03:19:06.670Z,87.35
2018-10-05T03:20:06.531Z,87.07
2018-10-05T03:21:06.555Z,87.64
2018-10-05T03:22:06.508Z,87.54
2018-10-05T03:23:06.490Z,87.07
2018-10-05T03:24:06.610Z,87.16
2018-10-05T03:25:06.804Z,86.69
2018-10-05T03:26:06.429Z,86.98
2018-10-05T03:27:06.409Z,86.98
2018-10-05T03:28:06.390Z,86.98
2018-10-05T03:29:06.381Z,86.69
2018-10-05T03:30:06.410Z,87.45
2018-10-05T03:31:06.338Z,86.88
2018-10-05T03:32:06.616Z,87.07
2018-10-05T03:33:06.379Z,87.26
2018-10-05T03:34:06.290Z,86.98
2018-10-05T03:35:06.326Z,87.07
2018-10-05T03:36:06.300Z,86.88
2018-10-05T03:37:06.340Z,86.98
2018-10-05T03:38:06.211Z,87.45
2018-10-05T03:39:06.577Z,87.07
2018-10-05T03:40:06.176Z,87.07
2018-10-05T03:41:06.486Z,87.07
2018-10-05T03:42:06.233Z,87.02
2018-10-05T03:43:06.130Z,87.02
2018-10-05T03:44:06.184Z,86.45
2018-10-05T03:45:06.201Z,86.26
2018-10-05T03:46:06.376Z,85.97
2018-10-05T03:47:06.119Z,86.65
2018-10-05T03:48:06.138Z,86.26
2018-10-05T03:49:06.117Z,86.16
2018-10-05T03:50:05.997Z,85.78
2018-10-05T03:51:06.041Z,85.88
2018-10-05T03:52:05.964Z,85.41
2018-10-05T03:53:06.264Z,85.78
2018-10-05T03:54:05.998Z,85.88
2018-10-05T03:55:05.919Z,85.78
2018-10-05T03:56:05.948Z,85.78
2018-10-05T03:57:05.930Z,85.69
2018-10-05T03:58:06.206Z,85.41
2018-10-05T03:59:05.952Z,85.69
2018-10-05T04:00:06.197Z,85.50
2018-10-05T04:01:05.871Z,85.69
2018-10-05T04:02:05.848Z,85.50
2018-10-05T04:03:05.839Z,85.41
2018-10-05T04:04:05.843Z,85.69
2018-10-05T04:05:05.782Z,85.12
2018-10-05T04:06:06.017Z,85.60
2018-10-05T04:07:05.748Z,85.12
2018-10-05T04:08:05.737Z,85.21
2018-10-05T04:11:05.632Z,85.41
2018-10-05T04:12:05.623Z,85.41
2018-10-05T04:13:06.244Z,85.12
2018-10-05T04:14:05.627Z,85.12
2018-10-05T04:15:05.691Z,84.26
2018-10-05T04:16:05.637Z,84.55
2018-10-05T04:17:05.519Z,84.45
2018-10-05T04:18:05.553Z,84.74
2018-10-05T04:19:05.827Z,84.45
2018-10-05T04:20:05.476Z,84.83
2018-10-05T04:21:05.452Z,85.12
2018-10-05T04:22:06.134Z,84.79
2018-10-05T04:23:05.723Z,85.08
2018-10-05T04:24:05.562Z,84.55
2018-10-05T04:25:05.731Z,84.45
2018-10-05T04:26:05.466Z,84.60
2018-10-05T04:27:05.488Z,84.74
2018-10-05T04:28:05.446Z,84.22
2018-10-05T04:29:05.311Z,84.22
2018-10-05T04:30:05.302Z,84.12
2018-10-05T04:31:05.716Z,84.16
2018-10-05T04:32:05.307Z,85.17
2018-10-05T04:33:05.293Z,84.79
2018-10-05T04:34:05.214Z,85.27
2018-10-05T04:35:05.196Z,85.27
2018-10-05T04:36:05.288Z,85.08
2018-10-05T04:37:05.583Z,85.17
2018-10-05T04:38:05.251Z,85.08
2018-10-05T04:39:05.234Z,85.36
2018-10-05T04:40:05.100Z,85.17
2018-10-05T04:41:05.104Z,85.17
2018-10-05T04:42:05.069Z,85.17
2018-10-05T04:43:05.069Z,85.46
2018-10-05T04:44:05.744Z,85.17
2018-10-05T04:45:05.013Z,85.46
2018-10-05T04:46:05.148Z,84.41
2018-10-05T04:47:04.984Z,84.69
2018-10-05T04:48:05.058Z,84.31
2018-10-05T04:49:04.944Z,84.60
2018-10-05T04:50:05.000Z,84.41
2018-10-05T04:51:05.215Z,84.41
2018-10-05T04:52:05.074Z,84.41
2018-10-05T04:53:04.917Z,84.50
2018-10-05T04:54:04.854Z,83.74
2018-10-05T04:55:04.838Z,84.50
2018-10-05T04:56:04.825Z,84.12
2018-10-05T04:57:04.795Z,84.36
2018-10-05T04:58:05.089Z,84.17
2018-10-05T04:59:05.062Z,83.93
2018-10-05T05:00:04.734Z,84.03
2018-10-05T05:01:05.076Z,83.65
2018-10-05T05:02:04.819Z,83.65
2018-10-05T05:03:04.687Z,83.41
2018-10-05T05:04:04.749Z,83.51
2018-10-05T05:05:04.960Z,83.70
2018-10-05T05:07:04.740Z,83.51
2018-10-05T05:08:04.712Z,83.13
2018-10-05T05:09:04.581Z,83.07
2018-10-05T05:10:04.567Z,83.51
2018-10-05T05:11:04.619Z,83.51
2018-10-05T05:12:04.634Z,83.51
2018-10-05T05:13:04.956Z,82.75
2018-10-05T05:14:04.495Z,83.03
2018-10-05T05:15:04.508Z,82.93
2018-10-05T05:16:04.502Z,82.65
2018-10-05T05:17:04.437Z,82.65
2018-10-05T05:18:04.783Z,82.75
2018-10-05T05:19:04.776Z,83.03
2018-10-05T05:20:04.378Z,82.65
2018-10-05T05:21:04.435Z,82.65
2018-10-05T05:22:04.341Z,82.84
2018-10-05T05:23:04.409Z,82.93
2018-10-05T05:24:04.605Z,82.84
2018-10-05T05:25:04.642Z,82.75
2018-10-05T05:26:04.269Z,82.75
2018-10-05T05:28:04.245Z,82.65
2018-10-05T05:29:04.221Z,82.18
2018-10-05T05:30:04.254Z,83.13
2018-10-05T05:31:04.558Z,83.22
2018-10-05T05:32:04.288Z,82.56
2018-10-05T05:33:04.143Z,83.03
2018-10-05T05:34:04.373Z,83.13
2018-10-05T05:35:04.178Z,82.84
2018-10-05T05:36:04.102Z,82.65
2018-10-05T05:37:04.369Z,83.22
2018-10-05T05:38:04.280Z,82.18
2018-10-05T05:39:04.183Z,82.18
2018-10-05T05:40:04.327Z,82.46
2018-10-05T05:41:04.205Z,82.46
2018-10-05T05:42:04.241Z,81.79
2018-10-05T05:43:04.435Z,81.89
2018-10-05T05:44:04.061Z,81.89
2018-10-05T05:45:03.999Z,81.79
2018-10-05T05:47:04.024Z,81.89
2018-10-05T05:48:04.043Z,81.89
2018-10-05T05:49:04.449Z,81.70
2018-10-05T05:50:03.823Z,81.60
2018-10-05T05:51:03.874Z,81.60
2018-10-05T05:52:03.856Z,81.98
2018-10-05T05:53:03.843Z,82.08
2018-10-05T05:54:03.790Z,82.27
2018-10-05T05:55:04.120Z,82.89
2018-10-05T05:56:03.805Z,82.69
2018-10-05T05:57:03.706Z,83.45
2018-10-05T05:58:03.779Z,83.26
2018-10-05T05:59:03.675Z,83.65
2018-10-05T06:00:03.745Z,83.17
2018-10-05T06:01:04.142Z,83.45
2018-10-05T06:02:03.861Z,83.26
2018-10-05T06:03:03.717Z,83.45
2018-10-05T06:04:03.682Z,84.22
2018-10-05T06:05:03.656Z,84.22
2018-10-05T06:06:03.664Z,83.93
2018-10-05T06:07:03.918Z,84.22
2018-10-05T06:08:03.662Z,83.84
2018-10-05T06:09:03.605Z,84.60
2018-10-05T06:10:03.523Z,85.36
2018-10-05T06:11:03.557Z,85.93
2018-10-05T06:12:03.502Z,86.26
2018-10-05T06:13:04.113Z,86.07
2018-10-05T06:14:03.799Z,86.55
2018-10-05T06:15:03.413Z,86.55
2018-10-05T06:16:03.473Z,86.55
2018-10-05T06:17:03.328Z,86.36
2018-10-05T06:18:03.361Z,85.88
2018-10-05T06:19:03.307Z,86.36
2018-10-05T06:20:03.347Z,86.93
2018-10-05T06:21:03.551Z,86.74
2018-10-05T06:22:03.383Z,87.60
2018-10-05T06:23:03.263Z,88.84
2018-10-05T06:24:03.204Z,88.64
2018-10-05T06:25:03.187Z,88.55
2018-10-05T06:26:03.356Z,88.45
2018-10-05T06:27:03.135Z,88.78
2018-10-05T06:28:03.492Z,88.78
2018-10-05T06:29:04.337Z,88.69
2018-10-05T06:30:03.092Z,89.07
2018-10-05T06:31:03.308Z,88.88
2018-10-05T06:32:03.159Z,89.54
2018-10-05T06:33:03.086Z,89.17
2018-10-05T06:34:03.028Z,89.54
2018-10-05T06:35:03.304Z,89.45
2018-10-05T06:36:02.993Z,89.54
2018-10-05T06:37:02.960Z,90.12
2018-10-05T06:38:03.056Z,89.93
2018-10-05T06:39:02.964Z,89.83
2018-10-05T06:40:02.961Z,90.50
2018-10-05T06:41:02.885Z,90.79
2018-10-05T06:42:03.339Z,90.41
2018-10-05T06:43:02.853Z,90.69
2018-10-05T06:44:02.837Z,91.55
2018-10-05T06:45:02.867Z,90.36
2018-10-05T06:46:02.860Z,91.21
2018-10-05T06:47:02.880Z,90.83
2018-10-05T06:48:02.841Z,91.12
2018-10-05T06:49:02.754Z,91.12
2018-10-05T06:50:02.836Z,92.36
2018-10-05T06:51:02.716Z,92.17
2018-10-05T06:52:02.691Z,91.41
2018-10-05T06:53:02.681Z,93.02
2018-10-05T06:54:02.704Z,92.83
2018-10-05T06:55:02.965Z,93.70
2018-10-05T06:56:02.622Z,93.02
2018-10-05T06:57:02.608Z,92.93
2018-10-05T06:58:02.738Z,93.65
2018-10-05T06:59:02.603Z,93.55
2018-10-05T07:00:02.769Z,93.17
2018-10-05T07:01:02.650Z,93.46
2018-10-05T07:02:02.694Z,93.46
2018-10-05T07:03:02.500Z,93.46
2018-10-05T07:04:02.494Z,92.79
2018-10-05T07:05:02.486Z,93.07
2018-10-05T07:06:02.642Z,92.88
2018-10-05T07:07:02.802Z,94.22
2018-10-05T07:08:02.471Z,93.65
2018-10-05T07:09:02.422Z,93.46
2018-10-05T07:10:02.386Z,94.70
2018-10-05T07:11:02.362Z,94.31
2018-10-05T07:12:02.493Z,94.51
2018-10-05T07:13:02.645Z,95.03
2018-10-05T07:14:02.384Z,94.74
2018-10-05T07:15:03.328Z,94.74
2018-10-05T07:16:02.272Z,95.22
2018-10-05T07:17:02.360Z,94.65
2018-10-05T07:18:02.290Z,95.41
2018-10-05T07:19:02.526Z,95.41
2018-10-05T07:20:02.218Z,96.17
2018-10-05T07:21:02.207Z,95.22
2018-10-05T07:22:02.168Z,96.32
2018-10-05T07:23:02.245Z,96.22
2018-10-05T07:24:02.187Z,96.80
2018-10-05T07:25:02.469Z,97.47
2018-10-05T07:26:02.100Z,95.94
2018-10-05T07:27:02.089Z,96.42
2018-10-05T07:28:02.467Z,97.37
2018-10-05T07:31:02.615Z,97.04
2018-10-05T07:32:02.117Z,97.80
2018-10-05T07:33:02.837Z,96.47
2018-10-05T07:34:01.983Z,97.99
2018-10-05T07:35:02.143Z,97.04
2018-10-05T07:36:01.988Z,97.95
2018-10-05T07:37:02.360Z,98.14
2018-10-05T07:38:02.022Z,98.28
2018-10-05T07:39:02.038Z,97.37
2018-10-05T07:40:01.873Z,98.33
2018-10-05T07:41:01.855Z,97.85
2018-10-05T07:42:01.881Z,98.52
2018-10-05T07:43:01.822Z,97.95
2018-10-05T07:44:02.164Z,98.14
2018-10-05T07:45:01.800Z,98.81
2018-10-05T07:46:01.837Z,98.14
2018-10-05T07:47:01.817Z,98.14
2018-10-05T07:48:01.742Z,97.23
2018-10-05T07:49:01.841Z,98.57
2018-10-05T07:50:01.741Z,98.28
2018-10-05T07:51:02.409Z,99.05
2018-10-05T07:52:01.966Z,98.47
2018-10-05T07:53:01.816Z,98.95
2018-10-05T07:54:01.697Z,98.00
2018-10-05T07:55:01.683Z,98.38
2018-10-05T07:56:01.625Z,98.28
2018-10-05T07:57:01.597Z,99.33
2018-10-05T07:58:02.193Z,97.61
2018-10-05T07:59:01.584Z,97.47
2018-10-05T08:00:01.591Z,98.62
2018-10-05T08:01:01.626Z,99.38
2018-10-05T08:02:01.592Z,99.87
2018-10-05T08:03:01.779Z,98.43
2018-10-05T08:04:02.104Z,99.38
2018-10-05T08:05:01.500Z,99.00
2018-10-05T08:06:01.491Z,98.71
2018-10-05T08:07:01.531Z,97.38
2018-10-05T08:08:01.495Z,99.96
2018-10-05T08:09:01.414Z,98.62
2018-10-05T08:10:01.452Z,98.81
2018-10-05T08:11:01.760Z,98.81
2018-10-05T08:12:01.452Z,99.38
2018-10-05T08:13:01.420Z,99.38
2018-10-05T08:14:01.486Z,99.05
2018-10-05T08:15:02.120Z,99.24
2018-10-05T08:16:01.381Z,98.28
2018-10-05T08:17:01.365Z,98.47
2018-10-05T08:18:01.882Z,99.99
2018-10-05T08:19:01.891Z,98.14
2018-10-05T08:20:01.488Z,99.29
2018-10-05T08:21:01.259Z,99.29
2018-10-05T08:22:01.330Z,99.10
2018-10-05T08:23:01.275Z,98.96
2018-10-05T08:24:01.542Z,98.77
2018-10-05T08:25:01.496Z,99.24
2018-10-05T08:26:01.914Z,98.57
2018-10-05T08:27:01.205Z,98.57
2018-10-05T08:28:01.189Z,98.00
2018-10-05T08:29:01.198Z,99.53
2018-10-05T08:30:01.467Z,98.28
2018-10-05T08:31:01.144Z,98.19
2018-10-05T08:32:01.181Z,99.34
2018-10-05T08:33:01.484Z,98.48
2018-10-05T08:34:01.196Z,98.48
2018-10-05T08:35:01.029Z,99.10
2018-10-05T08:36:01.725Z,98.86
2018-10-05T08:37:01.004Z,97.14
2018-10-05T08:38:01.289Z,97.61
2018-10-05T08:39:01.005Z,97.33
2018-10-05T08:40:01.277Z,97.61
2018-10-05T08:41:01.031Z,97.76
2018-10-05T08:43:01.945Z,97.66
2018-10-05T08:44:01.034Z,97.66
2018-10-05T08:45:00.928Z,98.10
2018-10-05T08:46:01.223Z,97.61
2018-10-05T08:47:00.861Z,96.94
2018-10-05T08:48:01.207Z,96.37
2018-10-05T08:49:00.839Z,96.94
2018-10-05T08:50:00.915Z,96.66
2018-10-05T08:51:00.860Z,95.79
2018-10-05T08:52:00.876Z,96.08
2018-10-05T08:53:00.784Z,96.08
2018-10-05T08:55:00.759Z,97.04
2018-10-05T08:56:00.953Z,96.70
2018-10-05T08:57:00.838Z,95.36
2018-10-05T08:58:00.830Z,94.93
2018-10-05T08:59:01.898Z,94.69
2018-10-05T09:00:01.841Z,94.98
2018-10-05T09:02:00.937Z,94.98
2018-10-05T09:03:00.729Z,93.25
2018-10-05T09:04:00.718Z,95.98
2018-10-05T09:05:00.801Z,94.93
2018-10-05T09:07:00.613Z,91.95
2018-10-05T09:08:02.353Z,93.19
2018-10-05T09:09:00.992Z,95.17
2018-10-05T09:10:01.053Z,92.76
2018-10-05T09:11:00.564Z,90.36
2018-10-05T09:12:00.848Z,89.78
2018-10-05T09:13:00.549Z,90.22
2018-10-05T09:14:00.720Z,91.47
2018-10-05T09:15:00.849Z,91.99
2018-10-05T09:16:01.916Z,91.13
2018-10-05T09:17:00.494Z,89.78
2018-10-05T09:18:01.013Z,90.41
2018-10-05T09:19:00.460Z,88.06
2018-10-05T09:20:01.057Z,90.84
2018-10-05T09:21:00.596Z,90.31
2018-10-05T09:22:00.492Z,90.31
2018-10-05T09:23:00.528Z,85.98
2018-10-05T09:24:01.105Z,86.46
2018-10-05T09:25:00.391Z,90.93
2018-10-05T09:26:00.502Z,86.60
2018-10-05T09:27:00.437Z,85.44
2018-10-05T09:28:00.412Z,84.67
2018-10-05T09:29:00.819Z,82.08
2018-10-05T09:30:00.333Z,82.71
2018-10-05T09:32:00.328Z,84.25
2018-10-05T09:33:00.373Z,84.48
2018-10-05T09:34:00.428Z,84.77
2018-10-05T09:36:00.438Z,84.10
2018-10-05T09:37:00.353Z,82.65
2018-10-05T09:39:00.605Z,84.00
2018-10-05T09:40:00.233Z,80.73
2018-10-05T09:41:00.307Z,80.83
2018-10-05T09:42:00.257Z,80.35
2018-10-05T09:43:00.242Z,81.73
2018-10-05T09:44:00.242Z,81.21
2018-10-05T09:45:00.292Z,81.83
2018-10-05T09:46:00.535Z,80.48
2018-10-05T09:47:00.311Z,79.90
2018-10-05T09:48:00.210Z,79.61
2018-10-05T09:49:00.312Z,79.23
2018-10-05T09:50:00.104Z,77.50
2018-10-05T09:51:00.161Z,77.88
2018-10-05T09:52:00.183Z,80.96
2018-10-05T09:53:00.459Z,79.13
2018-10-05T09:54:00.065Z,78.46
2018-10-05T09:55:00.060Z,83.89
2018-10-05T09:56:00.336Z,79.56
2018-10-05T09:57:00.031Z,76.86
2018-10-05T09:58:00.063Z,78.56
2018-10-05T09:59:00.085Z,78.59
2018-10-05T10:00:00.189Z,75.86
2018-10-05T10:01:00.044Z,75.09
2018-10-05T10:01:59.987Z,78.11
2018-10-05T10:03:00.029Z,76.76
2018-10-05T10:03:59.962Z,73.88
2018-10-05T10:05:00.556Z,75.13
2018-10-05T10:05:59.955Z,73.36
2018-10-05T10:07:00.140Z,75.03
2018-10-05T10:08:00.076Z,76.28
2018-10-05T10:09:00.746Z,74.55
2018-10-05T10:09:59.966Z,73.88
2018-10-05T10:11:00.396Z,76.32
2018-10-05T10:11:59.938Z,75.13
2018-10-05T10:12:59.878Z,74.40
2018-10-05T10:13:59.992Z,71.76
2018-10-05T10:15:00.089Z,70.92
2018-10-05T10:15:59.887Z,70.73
2018-10-05T10:17:00.574Z,71.85
2018-10-05T10:17:59.964Z,72.18
2018-10-05T10:18:59.833Z,70.64
2018-10-05T10:20:01.045Z,70.60
2018-10-05T10:20:59.985Z,70.60
2018-10-05T10:21:59.916Z,73.05
2018-10-05T10:23:00.089Z,75.36
2018-10-05T10:23:59.780Z,69.87
2018-10-05T10:24:59.772Z,69.48
2018-10-05T10:25:59.832Z,70.31
2018-10-05T10:26:59.773Z,70.70
2018-10-05T10:27:59.755Z,70.41
2018-10-05T10:29:00.092Z,70.79
2018-10-05T10:29:59.794Z,70.64
2018-10-05T10:30:59.821Z,69.73
2018-10-05T10:31:59.718Z,69.87
2018-10-05T10:32:59.768Z,69.77
2018-10-05T10:33:59.778Z,69.03
2018-10-05T10:35:59.732Z,70.70
2018-10-05T10:36:59.743Z,67.00
2018-10-05T10:37:59.762Z,67.55
2018-10-05T10:38:59.657Z,67.68
2018-10-05T10:39:59.709Z,68.52
2018-10-05T10:40:59.710Z,72.12
2018-10-05T10:42:00.005Z,68.07
2018-10-05T10:42:59.718Z,67.78
2018-10-05T10:43:59.620Z,67.49
2018-10-05T10:44:59.634Z,67.97
2018-10-05T10:45:59.693Z,69.03
2018-10-05T10:46:59.661Z,69.23
2018-10-05T10:47:59.614Z,69.64
2018-10-05T10:48:59.992Z,69.87
2018-10-05T10:49:59.636Z,67.30
2018-10-05T10:50:59.630Z,66.88
2018-10-05T10:51:59.567Z,66.30
2018-10-05T10:52:59.575Z,65.82
2018-10-05T10:53:59.707Z,65.63
2018-10-05T10:55:59.861Z,67.46
2018-10-05T10:56:59.532Z,66.14
2018-10-05T10:57:59.522Z,65.66
2018-10-05T10:58:59.579Z,64.47
2018-10-05T10:59:59.563Z,65.85
2018-10-05T11:00:59.631Z,64.28
2018-10-05T11:01:59.513Z,63.70
2018-10-05T11:02:59.801Z,63.98
2018-10-05T11:03:59.617Z,64.08
2018-10-05T11:05:00.195Z,63.67
2018-10-05T11:05:59.540Z,64.72
2018-10-05T11:06:59.495Z,63.85
2018-10-05T11:07:59.591Z,64.56
2018-10-05T11:08:59.659Z,64.08
2018-10-05T11:09:59.854Z,64.59
2018-10-05T11:10:59.541Z,63.24
2018-10-05T11:11:59.640Z,63.15
2018-10-05T11:12:59.562Z,63.12
2018-10-05T11:13:59.423Z,64.28
2018-10-05T11:14:59.474Z,64.08
2018-10-05T11:15:59.465Z,64.56
2018-10-05T11:16:59.847Z,63.50
2018-10-05T11:17:59.483Z,62.92
2018-10-05T11:18:59.505Z,63.12
2018-10-05T11:19:59.487Z,64.95
2018-10-05T11:20:59.421Z,63.40
2018-10-05T11:21:59.662Z,63.98
2018-10-05T11:22:59.425Z,63.92
2018-10-05T11:23:59.722Z,63.24
2018-10-05T11:24:59.462Z,65.08
2018-10-05T11:25:59.361Z,66.08
2018-10-05T11:26:59.374Z,63.37
2018-10-05T11:28:11.704Z,61.05
2018-10-05T11:29:59.733Z,61.27
2018-10-05T11:30:59.440Z,59.83
2018-10-05T11:32:00.968Z,60.41
2018-10-05T11:32:59.620Z,60.05
2018-10-05T11:33:59.936Z,60.60
2018-10-05T11:34:59.325Z,60.02
2018-10-05T11:35:59.636Z,59.60
2018-10-05T11:36:59.416Z,60.18
2018-10-05T11:37:59.311Z,60.44
2018-10-05T11:38:59.292Z,60.47
2018-10-05T11:39:59.363Z,62.82
2018-10-05T11:40:59.287Z,60.31
2018-10-05T11:41:59.840Z,57.70
2018-10-05T11:42:59.732Z,57.48
2018-10-05T11:43:59.357Z,59.60
2018-10-05T11:44:59.267Z,58.83
2018-10-05T11:45:59.340Z,60.11
2018-10-05T11:46:59.273Z,60.92
2018-10-05T11:47:59.309Z,58.21
2018-10-05T11:48:59.303Z,57.63
2018-10-05T11:49:59.244Z,56.86
2018-10-05T11:50:59.249Z,56.63
2018-10-05T11:51:59.239Z,58.80
2018-10-05T11:52:59.421Z,57.31
2018-10-05T11:53:59.601Z,57.51
2018-10-05T11:54:59.294Z,58.09
2018-10-05T11:55:59.241Z,57.89
2018-10-05T11:56:59.267Z,58.80
2018-10-05T11:57:59.208Z,57.66
2018-10-05T11:58:59.227Z,57.73
2018-10-05T11:59:59.753Z,58.40
2018-10-05T12:00:59.200Z,59.86
2018-10-05T12:01:59.286Z,59.08
2018-10-05T12:02:59.194Z,58.98
2018-10-05T12:03:59.500Z,58.98
2018-10-05T12:05:05.528Z,58.60
2018-10-05T12:05:59.528Z,58.12
2018-10-05T12:06:59.239Z,58.70
2018-10-05T12:07:59.236Z,59.98
2018-10-05T12:08:59.206Z,60.01
2018-10-05T12:09:59.195Z,59.84
2018-10-05T12:10:59.232Z,58.62
2018-10-05T12:11:59.157Z,56.10
2018-10-05T12:12:59.447Z,55.07
2018-10-05T12:13:59.199Z,56.82
2018-10-05T12:14:59.313Z,58.17
2018-10-05T12:15:59.380Z,56.82
2018-10-05T12:16:59.294Z,55.76
2018-10-05T12:17:59.306Z,55.98
2018-10-05T12:18:59.136Z,54.23
2018-10-05T12:20:59.544Z,56.59
2018-10-05T12:21:59.125Z,57.19
2018-10-05T12:22:59.454Z,54.99
2018-10-05T12:23:59.473Z,54.86
2018-10-05T12:24:59.129Z,55.47
2018-10-05T12:25:59.173Z,53.34
2018-10-05T12:26:59.139Z,54.50
2018-10-05T12:27:59.448Z,52.56
2018-10-05T12:28:59.096Z,52.44
2018-10-05T12:29:59.222Z,53.49
2018-10-05T12:30:59.139Z,54.86
2018-10-05T12:31:59.518Z,54.19
2018-10-05T12:32:59.132Z,53.61
2018-10-05T12:33:59.136Z,53.39
2018-10-05T12:34:59.440Z,53.39
2018-10-05T12:35:59.379Z,54.62
2018-10-05T12:36:59.156Z,55.27
2018-10-05T12:37:59.155Z,56.75
2018-10-05T12:38:59.147Z,58.65
2018-10-05T12:39:59.123Z,53.70
2018-10-05T12:40:59.138Z,56.13
2018-10-05T12:41:59.427Z,53.51
2018-10-05T12:42:59.194Z,53.39
2018-10-05T12:43:59.680Z,53.36
2018-10-05T12:44:59.165Z,54.39
2018-10-05T12:45:59.048Z,56.46
2018-10-05T12:46:59.167Z,56.26
2018-10-05T12:47:59.051Z,55.13
2018-10-05T12:48:59.372Z,55.64
2018-10-05T12:49:59.098Z,55.16
2018-10-05T12:50:59.028Z,53.12
2018-10-05T12:51:59.028Z,52.83
2018-10-05T12:52:59.132Z,56.45
2018-10-05T12:53:59.013Z,52.64
2018-10-05T12:54:59.082Z,53.61
2018-10-05T12:55:59.373Z,52.95
2018-10-05T12:56:59.017Z,52.95
2018-10-05T12:57:59.150Z,54.31
2018-10-05T12:58:59.028Z,53.47
2018-10-05T12:59:59.120Z,52.98
2018-10-05T13:00:59.207Z,52.59
2018-10-05T13:01:59.103Z,52.69
2018-10-05T13:02:59.298Z,51.33
2018-10-05T13:03:58.986Z,52.30
2018-10-05T13:04:59.029Z,52.78
2018-10-05T13:05:59.033Z,52.78
2018-10-05T13:06:59.171Z,52.20
2018-10-05T13:07:58.971Z,52.25
2018-10-05T13:08:59.273Z,52.90
2018-10-05T13:09:58.965Z,54.45
2018-10-05T13:10:58.957Z,53.31
2018-10-05T13:11:59.006Z,53.53
2018-10-05T13:12:59.059Z,53.27
2018-10-05T13:13:59.255Z,52.69
2018-10-05T13:14:59.324Z,52.88
2018-10-05T13:15:59.048Z,52.59
2018-10-05T13:16:59.035Z,51.31
2018-10-05T13:17:59.065Z,53.95
2018-10-05T13:19:59.019Z,52.52
2018-10-05T13:20:58.995Z,53.10
2018-10-05T13:21:59.375Z,53.22